createdAt,value
2023-09-08T00:01:43.078Z,0.018
2023-09-08T00:02:43.524Z,0.018
2023-09-08T00:03:43.340Z,0.018
2023-09-08T00:04:43.884Z,0.018
2023-09-08T00:06:43.290Z,0.018
2023-09-08T00:07:43.139Z,0.018
2023-09-08T00:08:42.928Z,0.018
2023-09-08T00:09:43.576Z,0.018
2023-09-08T00:10:43.479Z,0.018
2023-09-08T00:11:43.035Z,0.018
2023-09-08T00:12:42.741Z,0.018
2023-09-08T00:13:44.201Z,0.018
2023-09-08T00:14:42.874Z,0.018
2023-09-08T00:15:43.672Z,0.018
2023-09-08T00:16:44.052Z,0.018
2023-09-08T00:17:42.994Z,0.018
2023-09-08T00:18:43.180Z,0.018
2023-09-08T00:19:42.979Z,0.018
2023-09-08T00:22:43.557Z,0.018
2023-09-08T00:24:43.097Z,0.018
2023-09-08T00:25:42.834Z,0.018
2023-09-08T00:26:43.653Z,0.018
2023-09-08T00:27:43.275Z,0.018
2023-09-08T00:28:43.293Z,0.018
2023-09-08T00:29:43.436Z,0.018
2023-09-08T00:30:43.271Z,0.018
2023-09-08T00:31:43.429Z,0.018
2023-09-08T00:32:43.871Z,0.018
2023-09-08T00:33:43.098Z,0.018
2023-09-08T00:36:43.074Z,0.018
2023-09-08T00:37:42.750Z,0.018
2023-09-08T00:38:44.785Z,0.018
2023-09-08T00:39:43.421Z,0.018
2023-09-08T00:40:43.007Z,0.018
2023-09-08T00:41:42.805Z,0.018
2023-09-08T00:42:43.399Z,0.018
2023-09-08T00:44:42.637Z,0.018
2023-09-08T00:45:44.661Z,0.018
2023-09-08T00:46:43.810Z,0.018
2023-09-08T00:47:44.071Z,0.018
2023-09-08T00:48:43.454Z,0.018
2023-09-08T00:50:43.562Z,0.018
2023-09-08T00:51:43.272Z,0.018
2023-09-08T00:53:43.669Z,0.018
2023-09-08T00:54:43.262Z,0.018
2023-09-08T00:55:42.878Z,0.018
2023-09-08T00:56:44.048Z,0.018
2023-09-08T00:57:42.711Z,0.018
2023-09-08T00:58:44.815Z,0.018
2023-09-08T00:59:43.437Z,0.018
2023-09-08T01:00:43.211Z,0.018
2023-09-08T01:01:43.126Z,0.018
2023-09-08T01:02:43.493Z,0.018
2023-09-08T01:03:43.649Z,0.018
2023-09-08T01:04:43.965Z,0.018
2023-09-08T01:05:43.658Z,0.018
2023-09-08T01:07:43.159Z,0.027
2023-09-08T01:08:43.389Z,0.027
2023-09-08T01:09:43.712Z,0.027
2023-09-08T01:10:43.426Z,0.018
2023-09-08T01:11:43.093Z,0.018
2023-09-08T01:14:43.005Z,0.018
2023-09-08T01:15:42.833Z,0.027
2023-09-08T01:16:44.047Z,0.018
2023-09-08T01:17:43.042Z,0.018
2023-09-08T01:18:44.434Z,0.018
2023-09-08T01:19:43.051Z,0.018
2023-09-08T01:20:42.681Z,0.018
2023-09-08T01:21:43.903Z,0.027
2023-09-08T01:22:43.655Z,0.027
2023-09-08T01:23:43.256Z,0.018
2023-09-08T01:24:43.330Z,0.018
2023-09-08T01:25:42.972Z,0.018
2023-09-08T01:26:42.670Z,0.018
2023-09-08T01:27:43.405Z,0.018
2023-09-08T01:28:44.294Z,0.018
2023-09-08T01:29:42.939Z,0.018
2023-09-08T01:30:43.772Z,0.018
2023-09-08T01:31:44.524Z,0.018
2023-09-08T01:33:43.485Z,0.027
2023-09-08T01:34:43.278Z,0.018
2023-09-08T01:36:43.604Z,0.018
2023-09-08T01:37:43.206Z,0.027
2023-09-08T01:38:44.263Z,0.027
2023-09-08T01:39:42.972Z,0.027
2023-09-08T01:40:42.686Z,0.027
2023-09-08T01:41:43.467Z,0.027
2023-09-08T01:42:42.978Z,0.027
2023-09-08T01:43:42.694Z,0.027
2023-09-08T01:44:43.859Z,0.027
2023-09-08T01:46:43.902Z,0.027
2023-09-08T01:47:43.914Z,0.036
2023-09-08T01:48:44.449Z,0.036
2023-09-08T01:49:43.023Z,0.036
2023-09-08T01:50:42.674Z,0.036
2023-09-08T01:51:43.451Z,0.036
2023-09-08T01:52:43.063Z,0.036
2023-09-08T01:54:43.616Z,0.036
2023-09-08T01:55:43.412Z,0.036
2023-09-08T01:56:43.021Z,0.036
2023-09-08T01:57:42.603Z,0.036
2023-09-08T01:58:44.774Z,0.045
2023-09-08T01:59:43.588Z,0.036
2023-09-08T02:00:43.532Z,0.036
2023-09-08T02:01:43.565Z,0.036
2023-09-08T02:02:43.417Z,0.036
2023-09-08T02:03:43.247Z,0.027
2023-09-08T02:04:43.606Z,0.027
2023-09-08T02:05:44.472Z,0.027
2023-09-08T02:06:43.181Z,0.027
2023-09-08T02:07:42.838Z,0.027
2023-09-08T02:08:44.544Z,0.027
2023-09-08T02:09:43.275Z,0.027
2023-09-08T02:10:42.866Z,0.027
2023-09-08T02:11:43.578Z,0.018
2023-09-08T02:12:43.265Z,0.018
2023-09-08T02:13:42.855Z,0.018
2023-09-08T02:14:43.886Z,0.018
2023-09-08T02:15:45.035Z,0.018
2023-09-08T02:16:43.210Z,0.018
2023-09-08T02:17:43.113Z,0.018
2023-09-08T02:18:43.598Z,0.018
2023-09-08T02:19:43.534Z,0.018
2023-09-08T02:21:43.242Z,0.018
2023-09-08T02:22:42.980Z,0.018
2023-09-08T02:23:42.763Z,0.018
2023-09-08T02:24:43.950Z,0.018
2023-09-08T02:25:43.534Z,0.018
2023-09-08T02:26:43.189Z,0.018
2023-09-08T02:28:44.183Z,0.018
2023-09-08T02:29:42.790Z,0.018
2023-09-08T02:31:42.724Z,0.018
2023-09-08T02:32:43.860Z,0.018
2023-09-08T02:33:44.399Z,0.018
2023-09-08T02:34:43.024Z,0.018
2023-09-08T02:35:43.465Z,0.018
2023-09-08T02:36:43.433Z,0.018
2023-09-08T02:37:43.046Z,0.018
2023-09-08T02:38:43.658Z,0.018
2023-09-08T02:39:43.565Z,0.027
2023-09-08T02:41:43.462Z,0.027
2023-09-08T02:42:43.421Z,0.018
2023-09-08T02:44:42.785Z,0.018
2023-09-08T02:45:46.252Z,0.018
2023-09-08T02:46:43.154Z,0.018
2023-09-08T02:48:43.002Z,0.018
2023-09-08T02:49:42.945Z,0.018
2023-09-08T02:50:42.988Z,0.018
2023-09-08T02:53:43.202Z,0.018
2023-09-08T02:54:43.063Z,0.018
2023-09-08T02:55:43.499Z,0.018
2023-09-08T02:57:42.804Z,0.018
2023-09-08T02:58:44.388Z,0.018
2023-09-08T02:59:43.021Z,0.018
2023-09-08T03:02:44.049Z,0.018
2023-09-08T03:03:43.518Z,0.018
2023-09-08T03:04:44.737Z,0.018
2023-09-08T03:05:43.387Z,0.018
2023-09-08T03:06:43.019Z,0.018
2023-09-08T03:07:42.833Z,0.018
2023-09-08T03:08:44.505Z,0.018
2023-09-08T03:09:43.067Z,0.018
2023-09-08T03:10:42.611Z,0.018
2023-09-08T03:11:43.523Z,0.018
2023-09-08T03:12:43.114Z,0.018
2023-09-08T03:13:42.861Z,0.018
2023-09-08T03:14:43.615Z,0.018
2023-09-08T03:15:43.302Z,0.018
2023-09-08T03:16:43.526Z,0.018
2023-09-08T03:17:43.656Z,0.018
2023-09-08T03:18:44.406Z,0.018
2023-09-08T03:19:43.282Z,0.018
2023-09-08T03:20:43.014Z,0.018
2023-09-08T03:21:42.612Z,0.018
2023-09-08T03:22:43.294Z,0.027
2023-09-08T03:23:43.394Z,0.027
2023-09-08T03:24:43.129Z,0.027
2023-09-08T03:27:43.331Z,0.027
2023-09-08T03:28:44.214Z,0.027
2023-09-08T03:29:42.921Z,0.027
2023-09-08T03:30:43.568Z,0.027
2023-09-08T03:31:43.998Z,0.036
2023-09-08T03:32:43.395Z,0.036
2023-09-08T03:33:44.260Z,0.036
2023-09-08T03:34:43.502Z,0.045
2023-09-08T03:35:43.191Z,0.045
2023-09-08T03:36:43.014Z,0.062
2023-09-08T03:37:42.759Z,0.071
2023-09-08T03:40:43.343Z,0.152
2023-09-08T03:41:42.884Z,0.107
2023-09-08T03:42:43.632Z,0.107
2023-09-08T03:43:44.359Z,0.116
2023-09-08T03:44:42.875Z,0.125
2023-09-08T03:45:43.958Z,0.161
2023-09-08T03:46:43.410Z,0.143
2023-09-08T03:47:44.021Z,0.143
2023-09-08T03:48:42.751Z,0.143
2023-09-08T03:49:43.681Z,0.152
2023-09-08T03:50:43.283Z,0.169
2023-09-08T03:51:42.888Z,0.196
2023-09-08T03:52:43.495Z,0.223
2023-09-08T03:53:44.641Z,0.250
2023-09-08T03:54:43.331Z,0.294
2023-09-08T03:55:42.902Z,0.339
2023-09-08T03:56:43.858Z,0.392
2023-09-08T03:59:43.140Z,0.651
2023-09-08T04:00:42.809Z,0.758
2023-09-08T04:01:43.822Z,0.910
2023-09-08T04:02:44.025Z,1.097
2023-09-08T04:03:45.049Z,1.320
2023-09-08T04:04:42.871Z,1.587
2023-09-08T04:05:43.790Z,1.926
2023-09-08T04:06:43.406Z,2.318
2023-09-08T04:07:43.378Z,2.809
2023-09-08T04:08:43.009Z,3.406
2023-09-08T04:09:42.750Z,4.120
2023-09-08T04:10:43.362Z,5.002
2023-09-08T04:11:43.456Z,6.045
2023-09-08T04:12:43.116Z,7.338
2023-09-08T04:13:43.886Z,8.890
2023-09-08T04:14:43.840Z,10.789
2023-09-08T04:16:43.225Z,15.845
2023-09-08T04:17:43.374Z,19.198
2023-09-08T04:18:43.845Z,23.281
2023-09-08T04:19:43.488Z,28.186
2023-09-08T04:20:43.208Z,33.990
2023-09-08T04:23:44.939Z,58.948
2023-09-08T04:24:43.733Z,70.254
2023-09-08T04:25:43.451Z,83.398
2023-09-08T04:26:43.165Z,98.449
2023-09-08T04:29:43.109Z,158.199
2023-09-08T04:30:43.497Z,183.764
2023-09-08T04:31:43.532Z,212.261
2023-09-08T04:32:43.498Z,244.022
2023-09-08T04:33:45.126Z,279.315
2023-09-08T04:34:42.815Z,318.637
2023-09-08T04:35:43.576Z,361.018
2023-09-08T04:36:43.230Z,406.127
2023-09-08T04:38:43.493Z,509.044
2023-09-08T04:39:43.603Z,542.811
2023-09-08T04:40:43.316Z,599.146
2023-09-08T04:41:42.997Z,658.692
2023-09-08T04:42:43.191Z,721.929
2023-09-08T04:43:43.864Z,789.179
2023-09-08T04:44:43.430Z,859.638
2023-09-08T04:46:43.431Z,1010.669
2023-09-08T04:47:43.240Z,1090.758
2023-09-08T04:48:45.049Z,1173.416
2023-09-08T04:50:42.673Z,1345.792
2023-09-08T04:51:43.423Z,1437.759
2023-09-08T04:52:43.087Z,1529.886
2023-09-08T04:53:42.876Z,1623.618
2023-09-08T04:54:43.548Z,1720.239
2023-09-08T04:55:43.122Z,1816.379
2023-09-08T04:56:43.142Z,1913.481
2023-09-08T04:57:42.881Z,2014.275
2023-09-08T04:58:44.442Z,2119.563
2023-09-08T05:00:43.192Z,2329.336
2023-09-08T05:01:42.884Z,2433.822
2023-09-08T05:02:44.408Z,2546.011
2023-09-08T05:03:44.208Z,2663.979
2023-09-08T05:04:42.923Z,2770.230
2023-09-08T05:05:43.904Z,2882.259
2023-09-08T05:06:43.591Z,3005.042
2023-09-08T05:07:43.129Z,3130.713
2023-09-08T05:08:44.141Z,3252.211
2023-09-08T05:09:42.773Z,3362.957
2023-09-08T05:10:43.447Z,3475.146
2023-09-08T05:11:43.299Z,3591.669
2023-09-08T05:12:42.917Z,3709.958
2023-09-08T05:13:47.482Z,3816.048
2023-09-08T05:14:43.135Z,3924.064
2023-09-08T05:15:45.074Z,4030.315
2023-09-08T05:16:43.072Z,4141.381
2023-09-08T05:17:42.788Z,4257.583
2023-09-08T05:18:44.704Z,4387.749
2023-09-08T05:19:43.372Z,4494.803
2023-09-08T05:20:42.914Z,4592.708
2023-09-08T05:21:43.913Z,4697.996
2023-09-08T05:22:43.622Z,4823.667
2023-09-08T05:23:43.273Z,4942.437
2023-09-08T05:24:42.891Z,5058.960
2023-09-08T05:25:43.633Z,5194.743
2023-09-08T05:26:43.245Z,5346.736
2023-09-08T05:28:48.819Z,5632.105
2023-09-08T05:29:43.411Z,5784.741
2023-09-08T05:31:42.764Z,6026.614
2023-09-08T05:32:44.381Z,6197.387
2023-09-08T05:33:43.328Z,6321.935
2023-09-08T05:35:43.577Z,6610.995
2023-09-08T05:36:43.585Z,6729.765
2023-09-08T05:37:43.478Z,6823.336
2023-09-08T05:38:43.793Z,7037.123
2023-09-08T05:39:43.403Z,7264.551
2023-09-08T05:40:43.387Z,7467.904
2023-09-08T05:41:42.982Z,7624.874
2023-09-08T05:42:44.577Z,7701.914
2023-09-08T05:43:43.912Z,7795.646
2023-09-08T05:45:43.207Z,8080.693
2023-09-08T05:46:43.534Z,8101.398
2023-09-08T05:47:43.664Z,8304.431
2023-09-08T05:48:44.126Z,8129.485
2023-09-08T05:49:45.692Z,8036.716
2023-09-08T05:50:43.356Z,8105.250
2023-09-08T05:51:42.966Z,8202.994
2023-09-08T05:52:43.942Z,8317.752
2023-09-08T05:53:44.329Z,8508.747
2023-09-08T05:54:43.016Z,8756.238
2023-09-08T05:55:42.654Z,9088.954
2023-09-08T05:56:43.317Z,9380.583
2023-09-08T05:57:42.903Z,9958.544
2023-09-08T05:58:44.143Z,10776.451
2023-09-08T05:59:43.008Z,11347.511
2023-09-08T06:00:42.663Z,11614.903
2023-09-08T06:01:43.753Z,11779.897
2023-09-08T06:02:44.398Z,11857.098
2023-09-08T06:03:44.386Z,11831.258
2023-09-08T06:04:43.542Z,12364.278
2023-09-08T06:05:43.168Z,13199.199
2023-09-08T06:06:42.869Z,13633.191
2023-09-08T06:07:57.290Z,13361.304
2023-09-08T06:09:43.924Z,13757.899
2023-09-08T06:10:47.547Z,14359.453
2023-09-08T06:12:46.155Z,14705.652
2023-09-08T06:13:45.811Z,15262.908
2023-09-08T06:14:49.467Z,16085.791
2023-09-08T06:15:46.244Z,16928.256
2023-09-08T06:16:46.099Z,17084.422
2023-09-08T06:19:42.859Z,18112.586
2023-09-08T06:20:43.864Z,18387.682
2023-09-08T06:22:43.094Z,19171.244
2023-09-08T06:23:45.025Z,19701.375
2023-09-08T06:24:42.692Z,19345.387
2023-09-08T06:25:43.441Z,18529.564
2023-09-08T06:26:43.338Z,19101.266
2023-09-08T06:27:43.021Z,20279.496
2023-09-08T06:28:43.370Z,20959.535
2023-09-08T06:29:42.970Z,21676.648
2023-09-08T06:30:43.621Z,21798.469
2023-09-08T06:31:43.620Z,21268.336
2023-09-08T06:32:44.211Z,21175.086
2023-09-08T06:33:43.912Z,20920.373
2023-09-08T06:34:42.954Z,21115.861
2023-09-08T06:35:43.665Z,21731.539
2023-09-08T06:36:43.770Z,21605.547
2023-09-08T06:37:43.522Z,21743.576
2023-09-08T06:38:44.092Z,23099.000
2023-09-08T06:39:43.121Z,24508.672
2023-09-08T06:40:42.777Z,25875.328
2023-09-08T06:41:43.439Z,26657.123
2023-09-08T06:42:43.454Z,26827.896
2023-09-08T06:43:43.123Z,27392.053
2023-09-08T06:45:43.546Z,28806.701
2023-09-08T06:46:43.639Z,25710.174
2023-09-08T06:47:43.955Z,22210.953
2023-09-08T06:48:43.946Z,22955.031
2023-09-08T06:49:43.665Z,26054.928
2023-09-08T06:50:43.907Z,28075.463
2023-09-08T06:51:43.585Z,30234.027
2023-09-08T06:52:43.227Z,31553.498
2023-09-08T06:54:42.633Z,31344.045
2023-09-08T06:55:45.831Z,30655.982
2023-09-08T06:57:43.597Z,31561.201
2023-09-08T06:58:43.968Z,32556.943
2023-09-08T06:59:42.718Z,31893.758
2023-09-08T07:00:43.848Z,29804.529
2023-09-08T07:01:45.066Z,28105.957
2023-09-08T07:02:43.761Z,29013.424
2023-09-08T07:03:43.839Z,32686.949
2023-09-08T07:04:43.888Z,34858.996
2023-09-08T07:05:42.825Z,35649.297
2023-09-08T07:06:43.686Z,35459.426
2023-09-08T07:07:45.011Z,36007.855
2023-09-08T07:09:43.073Z,36105.117
2023-09-08T07:10:43.002Z,34622.418
2023-09-08T07:11:42.652Z,34121.016
2023-09-08T07:12:43.286Z,35208.887
2023-09-08T07:13:43.427Z,36594.480
2023-09-08T07:14:43.112Z,37761.637
2023-09-08T07:15:42.764Z,38795.578
2023-09-08T07:16:44.600Z,38941.953
2023-09-08T07:18:43.768Z,39814.914
2023-09-08T07:19:43.996Z,41900.613
2023-09-08T07:21:43.346Z,44837.762
2023-09-08T07:22:43.442Z,44949.309
2023-09-08T07:23:43.207Z,44946.422
2023-09-08T07:24:42.940Z,45488.910
2023-09-08T07:25:43.663Z,46284.988
2023-09-08T07:26:43.242Z,46333.621
2023-09-08T07:27:44.268Z,45344.941
2023-09-08T07:28:43.304Z,43978.125
2023-09-08T07:29:42.935Z,44415.004
2023-09-08T07:30:44.395Z,46643.707
2023-09-08T07:32:43.847Z,45211.887
2023-09-08T07:33:43.975Z,46745.465
2023-09-08T07:34:43.701Z,46423.500
2023-09-08T07:35:43.356Z,44827.648
2023-09-08T07:37:42.886Z,48088.207
2023-09-08T07:38:44.393Z,46111.488
2023-09-08T07:39:43.091Z,46621.238
2023-09-08T07:40:42.940Z,47330.488
2023-09-08T07:41:43.761Z,49255.684
2023-09-08T07:42:43.416Z,49188.434
2023-09-08T07:43:43.572Z,50782.039
2023-09-08T07:44:44.042Z,49727.715
2023-09-08T07:45:42.851Z,51179.758
2023-09-08T07:46:43.904Z,51799.609
2023-09-08T07:48:45.373Z,51756.434
2023-09-08T07:49:43.371Z,50943.344
2023-09-08T07:50:43.016Z,49896.238
2023-09-08T07:51:42.713Z,53883.863
2023-09-08T07:52:43.347Z,56980.871
2023-09-08T07:53:43.360Z,58723.578
2023-09-08T07:54:42.995Z,61012.789
2023-09-08T07:55:42.548Z,59339.738
2023-09-08T07:56:43.749Z,54563.742
2023-09-08T07:58:44.603Z,47502.863
2023-09-08T07:59:47.356Z,47873.617
2023-09-08T08:00:42.941Z,49487.285
2023-09-08T08:01:44.134Z,52906.098
2023-09-08T08:04:44.088Z,61141.191
2023-09-08T08:05:43.126Z,62918.246
2023-09-08T08:06:42.749Z,63324.473
2023-09-08T08:07:43.353Z,60296.641
2023-09-08T08:08:44.335Z,59930.859
2023-09-08T08:09:44.239Z,62648.445
2023-09-08T08:10:42.880Z,63438.426
2023-09-08T08:11:43.830Z,63335.066
2023-09-08T08:12:43.594Z,64670.426
2023-09-08T08:14:42.902Z,62306.902
2023-09-08T08:15:43.788Z,61523.824
2023-09-08T08:16:43.847Z,65634.070
2023-09-08T08:18:45.796Z,68984.984
2023-09-08T08:19:43.818Z,72497.367
2023-09-08T08:20:43.779Z,76304.266
2023-09-08T08:21:44.022Z,73808.172
2023-09-08T08:22:42.913Z,74074.117
2023-09-08T08:23:45.454Z,76528.969
2023-09-08T08:24:43.367Z,77992.086
2023-09-08T08:25:43.105Z,76552.242
2023-09-08T08:26:42.872Z,71430.523
2023-09-08T08:27:43.845Z,69445.945
2023-09-08T08:28:44.310Z,73157.984
2023-09-08T08:29:42.922Z,75341.430
2023-09-08T08:30:44.836Z,72090.180
2023-09-08T08:31:43.722Z,74712.109
2023-09-08T08:33:43.767Z,80040.227
2023-09-08T08:35:43.107Z,82453.344
2023-09-08T08:37:42.677Z,72110.883
2023-09-08T08:38:44.962Z,72563.336
2023-09-08T08:39:43.628Z,76922.195
2023-09-08T08:40:43.275Z,77372.234
2023-09-08T08:42:42.776Z,79901.719
2023-09-08T08:43:43.932Z,80396.859
2023-09-08T08:44:42.657Z,83015.414
2023-09-08T08:45:43.719Z,81819.047
2023-09-08T08:46:43.403Z,83935.242
2023-09-08T08:47:43.606Z,85666.391
2023-09-08T08:48:45.314Z,84618.328
2023-09-08T08:49:43.241Z,84798.734
2023-09-08T08:50:42.964Z,84887.008
2023-09-08T08:51:43.085Z,82191.406
2023-09-08T08:52:43.470Z,74103.977
2023-09-08T08:53:43.274Z,81134.836
2023-09-08T08:55:42.987Z,54102.945
2023-09-08T08:56:42.702Z,54077.266
2023-09-08T08:57:43.410Z,56079.504
2023-09-08T08:58:44.684Z,51618.727
2023-09-08T08:59:43.468Z,47502.703
2023-09-08T09:00:43.269Z,50398.445
2023-09-08T09:01:44.479Z,57017.465
2023-09-08T09:04:43.723Z,73109.031
2023-09-08T09:06:43.391Z,77513.633
2023-09-08T09:07:43.237Z,78250.008
2023-09-08T09:08:43.629Z,82024.008
2023-09-08T09:09:43.568Z,82974.164
2023-09-08T09:11:43.288Z,85978.727
2023-09-08T09:12:42.926Z,87690.617
2023-09-08T09:13:43.616Z,89459.172
2023-09-08T09:14:43.551Z,88259.109
2023-09-08T09:15:43.926Z,88848.148
2023-09-08T09:16:43.588Z,90520.555
2023-09-08T09:17:43.485Z,91552.086
2023-09-08T09:18:44.541Z,94270.477
2023-09-08T09:20:42.808Z,93333.156
2023-09-08T09:21:44.495Z,93809.359
2023-09-08T09:22:43.172Z,91668.773
2023-09-08T09:23:42.821Z,91162.070
2023-09-08T09:25:44.739Z,90088.008
2023-09-08T09:26:44.116Z,95022.578
2023-09-08T09:29:42.672Z,98393.078
2023-09-08T09:30:43.893Z,99863.422
2023-09-08T09:31:43.522Z,100374.289
2023-09-08T09:32:43.464Z,99815.914
2023-09-08T09:33:44.012Z,99793.602
2023-09-08T09:34:42.744Z,99963.734
2023-09-08T09:35:44.317Z,101991.492
2023-09-08T09:36:42.946Z,99875.141
2023-09-08T09:37:44.045Z,99171.188
2023-09-08T09:38:43.491Z,101882.672
2023-09-08T09:39:43.199Z,100481.828
2023-09-08T09:41:42.750Z,103931.773
2023-09-08T09:42:43.504Z,106214.242
2023-09-08T09:43:43.250Z,104625.773
2023-09-08T09:44:42.904Z,103785.883
2023-09-08T09:45:43.956Z,104551.789
2023-09-08T09:46:42.634Z,106826.070
2023-09-08T09:47:43.480Z,106761.391
2023-09-08T09:48:44.167Z,105349.633
2023-09-08T09:49:43.174Z,103533.414
2023-09-08T09:50:42.995Z,101103.125
2023-09-08T09:52:43.317Z,101626.672
2023-09-08T09:53:43.089Z,100667.688
2023-09-08T09:56:45.566Z,98735.750
2023-09-08T09:57:43.471Z,84773.375
2023-09-08T09:58:44.960Z,85416.656
2023-09-08T09:59:42.686Z,95137.820
2023-09-08T10:00:43.761Z,95036.867
2023-09-08T10:01:43.903Z,92559.391
2023-09-08T10:02:45.338Z,88007.289
2023-09-08T10:03:43.842Z,86678.664
2023-09-08T10:04:43.554Z,92929.336
2023-09-08T10:06:43.396Z,81868.164
2023-09-08T10:07:43.106Z,76426.406
2023-09-08T10:08:43.967Z,76402.336
2023-09-08T10:09:42.874Z,74414.859
2023-09-08T10:10:43.550Z,73304.039
2023-09-08T10:11:45.206Z,76856.867
2023-09-08T10:12:43.193Z,87313.125
2023-09-08T10:13:43.259Z,93695.570
2023-09-08T10:14:42.958Z,88335.992
2023-09-08T10:15:44.292Z,87939.070
2023-09-08T10:16:43.275Z,93143.445
2023-09-08T10:19:45.601Z,102273.812
2023-09-08T10:21:43.534Z,104464.156
2023-09-08T10:22:44.113Z,114049.695
2023-09-08T10:23:42.856Z,108306.844
2023-09-08T10:24:44.364Z,98644.266
2023-09-08T10:25:43.060Z,103231.992
2023-09-08T10:26:42.855Z,106741.008
2023-09-08T10:27:43.841Z,112734.234
2023-09-08T10:28:45.160Z,110502.969
2023-09-08T10:29:42.978Z,105774.633
2023-09-08T10:30:42.860Z,107509.961
2023-09-08T10:31:43.075Z,108626.242
2023-09-08T10:32:42.884Z,107724.070
2023-09-08T10:33:44.299Z,107131.664
2023-09-08T10:34:43.125Z,106322.102
2023-09-08T10:35:43.548Z,105543.195
2023-09-08T10:36:46.386Z,108058.555
2023-09-08T10:37:42.942Z,105917.484
2023-09-08T10:38:44.800Z,100822.891
2023-09-08T10:39:43.943Z,103894.375
2023-09-08T10:40:42.743Z,105643.672
2023-09-08T10:41:43.390Z,102440.570
2023-09-08T10:42:43.176Z,101480.781
2023-09-08T10:43:43.006Z,99559.594
2023-09-08T10:44:45.204Z,96742.656
2023-09-08T10:45:43.105Z,96252.656
2023-09-08T10:46:43.298Z,98262.109
2023-09-08T10:48:44.294Z,111217.352
2023-09-08T10:49:42.975Z,117831.719
2023-09-08T10:50:43.677Z,115580.867
2023-09-08T10:51:43.333Z,102617.117
2023-09-08T10:52:43.190Z,107335.180
2023-09-08T10:54:43.543Z,109200.828
2023-09-08T10:55:43.357Z,107097.641
2023-09-08T10:56:43.210Z,109752.148
2023-09-08T10:57:42.884Z,105797.430
2023-09-08T10:59:42.948Z,117523.398
2023-09-08T11:00:43.692Z,117403.500
2023-09-08T11:01:44.148Z,110799.086
2023-09-08T11:03:44.284Z,106566.383
2023-09-08T11:04:43.644Z,101715.750
2023-09-08T11:05:43.326Z,98829.477
2023-09-08T11:06:42.960Z,97837.750
2023-09-08T11:07:43.745Z,103055.281
2023-09-08T11:08:44.503Z,111034.062
2023-09-08T11:09:43.260Z,105164.898
2023-09-08T11:10:42.888Z,107310.945
2023-09-08T11:11:43.881Z,109938.648
2023-09-08T11:12:43.600Z,107937.695
2023-09-08T11:13:43.483Z,95706.953
2023-09-08T11:14:43.939Z,89528.508
2023-09-08T11:15:42.605Z,102803.461
2023-09-08T11:16:43.726Z,105251.570
2023-09-08T11:17:44.098Z,99355.281
2023-09-08T11:18:44.811Z,102602.992
2023-09-08T11:19:43.587Z,100791.273
2023-09-08T11:20:43.514Z,98290.523
2023-09-08T11:21:46.522Z,100765.273
2023-09-08T11:23:42.878Z,99762.305
2023-09-08T11:24:44.702Z,111773.164
2023-09-08T11:25:43.358Z,108719.008
2023-09-08T11:26:43.254Z,107034.398
2023-09-08T11:27:43.008Z,106415.352
2023-09-08T11:28:44.708Z,101295.398
2023-09-08T11:30:42.939Z,120671.281
2023-09-08T11:31:44.059Z,113122.969
2023-09-08T11:33:43.174Z,111044.008
2023-09-08T11:34:43.045Z,108287.266
2023-09-08T11:35:42.687Z,117033.227
2023-09-08T11:36:43.714Z,117131.938
2023-09-08T11:37:43.333Z,109040.172
2023-09-08T11:38:43.543Z,108691.562
2023-09-08T11:39:43.147Z,109104.367
2023-09-08T11:40:43.721Z,110072.188
2023-09-08T11:41:43.512Z,104578.266
2023-09-08T11:42:43.784Z,95921.859
2023-09-08T11:43:43.583Z,102527.242
2023-09-08T11:44:43.826Z,108430.430
2023-09-08T11:45:43.639Z,105819.734
2023-09-08T11:46:44.301Z,104303.812
2023-09-08T11:47:43.459Z,107872.211
2023-09-08T11:48:44.379Z,105462.945
2023-09-08T11:49:43.191Z,93019.539
2023-09-08T11:50:45.286Z,89315.039
2023-09-08T11:51:43.467Z,99948.648
2023-09-08T11:52:43.175Z,108133.984
2023-09-08T11:53:43.591Z,109645.414
2023-09-08T11:55:43.870Z,105852.156
2023-09-08T11:56:44.378Z,107922.125
2023-09-08T11:57:43.055Z,110079.727
2023-09-08T11:58:44.090Z,111376.406
2023-09-08T11:59:42.728Z,109912.008
2023-09-08T12:00:43.402Z,109930.625
2023-09-08T12:01:43.314Z,113950.664
2023-09-08T12:03:43.358Z,107423.289
2023-09-08T12:04:43.393Z,111731.914
2023-09-08T12:05:43.310Z,111337.727
2023-09-08T12:06:43.292Z,115828.031
2023-09-08T12:07:42.975Z,114317.250
2023-09-08T12:08:43.062Z,107849.898
2023-09-08T12:09:43.023Z,107158.625
2023-09-08T12:12:42.905Z,110644.688
2023-09-08T12:13:43.652Z,107655.859
2023-09-08T12:14:45.288Z,101492.172
2023-09-08T12:15:43.541Z,101394.594
2023-09-08T12:16:43.663Z,106204.617
2023-09-08T12:17:43.428Z,108485.320
2023-09-08T12:18:44.033Z,103100.062
2023-09-08T12:21:43.259Z,103090.594
2023-09-08T12:22:42.844Z,108480.508
2023-09-08T12:23:43.436Z,108072.672
2023-09-08T12:24:43.052Z,109071.789
2023-09-08T12:25:45.539Z,106023.570
2023-09-08T12:26:43.160Z,106207.664
2023-09-08T12:27:43.743Z,104879.367
2023-09-08T12:28:44.576Z,104817.734
2023-09-08T12:29:43.310Z,105704.336
2023-09-08T12:30:43.001Z,108731.047
2023-09-08T12:31:43.613Z,107304.680
2023-09-08T12:32:43.607Z,102100.633
2023-09-08T12:33:43.320Z,102783.719
2023-09-08T12:34:43.050Z,104102.227
2023-09-08T12:35:44.910Z,100495.789
2023-09-08T12:36:43.621Z,101268.281
2023-09-08T12:37:43.246Z,111868.820
2023-09-08T12:38:43.667Z,114643.383
2023-09-08T12:39:43.374Z,109736.578
2023-09-08T12:40:43.131Z,108653.203
2023-09-08T12:41:43.469Z,105604.984
2023-09-08T12:43:08.037Z,99887.820
2023-09-08T12:43:44.527Z,84977.047
2023-09-08T12:45:43.241Z,96737.844
2023-09-08T12:46:43.297Z,99415.789
2023-09-08T12:47:43.573Z,101493.297
2023-09-08T12:48:43.943Z,100181.852
2023-09-08T12:50:43.572Z,106252.281
2023-09-08T12:51:43.215Z,99360.250
2023-09-08T12:52:43.833Z,102706.680
2023-09-08T12:53:43.978Z,99181.133
2023-09-08T12:54:43.520Z,97485.453
2023-09-08T12:55:43.113Z,101725.219
2023-09-08T12:58:43.302Z,108492.062
2023-09-08T12:59:42.953Z,106142.344
2023-09-08T13:00:43.905Z,105174.844
2023-09-08T13:01:44.081Z,105651.055
2023-09-08T13:02:43.074Z,100707.328
2023-09-08T13:03:43.293Z,99760.383
2023-09-08T13:05:45.452Z,104075.422
2023-09-08T13:06:43.577Z,93479.211
2023-09-08T13:07:43.718Z,87307.188
2023-09-08T13:08:44.566Z,87688.852
2023-09-08T13:09:43.601Z,90216.727
2023-09-08T13:10:43.599Z,91855.758
2023-09-08T13:11:43.275Z,94345.914
2023-09-08T13:12:43.047Z,99789.109
2023-09-08T13:13:43.302Z,101821.844
2023-09-08T13:14:42.890Z,99188.516
2023-09-08T13:15:44.106Z,95312.766
2023-09-08T13:16:43.842Z,95903.562
2023-09-08T13:17:43.906Z,96039.828
2023-09-08T13:18:44.434Z,84763.422
2023-09-08T13:19:43.078Z,77817.305
2023-09-08T13:20:42.992Z,76330.914
2023-09-08T13:23:43.563Z,75487.000
2023-09-08T13:24:44.498Z,81237.078
2023-09-08T13:26:46.197Z,89193.062
2023-09-08T13:27:42.930Z,91900.375
2023-09-08T13:28:44.927Z,94250.414
2023-09-08T13:29:43.537Z,92675.109
2023-09-08T13:30:43.185Z,91997.156
2023-09-08T13:31:43.635Z,93310.367
2023-09-08T13:32:44.544Z,91584.188
2023-09-08T13:33:43.201Z,87812.922
2023-09-08T13:34:42.982Z,86330.062
2023-09-08T13:35:42.659Z,85459.031
2023-09-08T13:36:43.297Z,84252.391